Time;durP1;ratioP1;P1;durP2;ratioP2;P2;SDS_P1;SDS_P2;PMS_P1;PMS_P2;Temp;Humidity;BMP_temperature;BMP_pressure;BME280_temperature;BME280_humidity;BME280_pressure;Samples;Min_cycle;Max_cycle;Signal;HPM_P1;HPM_P2
2024/01/05 00:04:20;;;;;;;0.70;0.70;;;8.80;99.90;;;;;;10535051;28;20559;-77
2024/01/05 00:09:24;;;;;;;0.60;0.60;;;8.70;99.90;;;;;;10524481;28;20673;-77
2024/01/05 00:14:26;;;;;;;0.90;0.90;;;8.60;99.90;;;;;;10527334;28;20196;-77
2024/01/05 00:19:29;;;;;;;0.60;0.60;;;8.60;99.90;;;;;;10528206;28;20709;-77
2024/01/05 00:24:32;;;;;;;0.60;0.60;;;8.60;99.90;;;;;;10528604;28;20268;-77
2024/01/05 00:29:35;;;;;;;0.60;0.60;;;8.60;99.90;;;;;;10529132;28;20273;-75
2024/01/05 00:34:37;;;;;;;0.50;0.50;;;8.50;99.90;;;;;;10507513;28;20624;-76
2024/01/05 00:39:41;;;;;;;0.60;0.60;;;8.40;99.90;;;;;;10522867;28;20227;-77
2024/01/05 00:44:43;;;;;;;0.60;0.60;;;8.40;99.90;;;;;;10530704;28;20719;-77
2024/01/05 00:49:45;;;;;;;0.50;0.50;;;8.40;99.90;;;;;;10506741;28;20236;-78
2024/01/05 00:54:49;;;;;;;0.50;0.50;;;8.40;99.90;;;;;;10531593;28;20195;-77
2024/01/05 00:59:51;;;;;;;0.60;0.60;;;8.40;99.90;;;;;;10532310;28;20267;-78
2024/01/05 01:04:54;;;;;;;0.50;0.50;;;8.50;99.90;;;;;;10532596;28;20211;-77
2024/01/05 01:09:58;;;;;;;0.60;0.60;;;8.50;99.90;;;;;;10525059;28;20257;-77
2024/01/05 01:15:00;;;;;;;0.50;0.50;;;8.60;99.90;;;;;;10525453;28;20183;-77
2024/01/05 01:20:03;;;;;;;0.53;0.53;;;8.60;99.90;;;;;;10525124;28;20272;-77
2024/01/05 01:25:07;;;;;;;0.60;0.60;;;8.70;99.90;;;;;;10526782;28;20677;-76
2024/01/05 01:30:10;;;;;;;0.50;0.50;;;8.70;99.90;;;;;;10507709;28;20289;-77
2024/01/05 01:35:13;;;;;;;0.60;0.60;;;8.80;99.90;;;;;;10494895;28;20196;-77
2024/01/05 01:40:16;;;;;;;0.60;0.60;;;8.80;99.90;;;;;;10507189;28;20285;-77
2024/01/05 01:45:19;;;;;;;0.60;0.60;;;8.90;99.90;;;;;;10528355;28;20224;-77
2024/01/05 01:50:24;;;;;;;0.60;0.60;;;8.90;99.90;;;;;;10529280;28;20212;-77
2024/01/05 01:55:28;;;;;;;0.50;0.50;;;8.90;99.90;;;;;;10529754;28;20253;-77
2024/01/05 02:00:31;;;;;;;0.60;0.60;;;9.00;99.90;;;;;;10527302;28;20226;-77
2024/01/05 02:05:33;;;;;;;0.50;0.50;;;9.00;99.90;;;;;;10515947;28;20636;-77
2024/01/05 02:10:37;;;;;;;0.70;0.70;;;9.00;99.90;;;;;;10510059;28;20743;-77
2024/01/05 02:15:39;;;;;;;0.60;0.60;;;9.00;99.90;;;;;;10480900;28;20188;-76
2024/01/05 02:20:44;;;;;;;0.50;0.50;;;9.00;99.90;;;;;;10524457;28;20475;-77
2024/01/05 02:25:48;;;;;;;0.50;0.50;;;9.00;99.90;;;;;;10524703;28;20771;-78
2024/01/05 02:30:50;;;;;;;0.70;0.70;;;9.00;99.90;;;;;;10532002;28;20224;-77
2024/01/05 02:35:53;;;;;;;0.53;0.53;;;9.00;99.90;;;;;;10521254;28;20269;-78
2024/01/05 02:40:58;;;;;;;0.60;0.60;;;9.00;99.90;;;;;;10519573;28;20231;-77
2024/01/05 02:46:00;;;;;;;0.50;0.50;;;9.00;99.90;;;;;;10535452;28;20707;-77
2024/01/05 02:51:02;;;;;;;0.50;0.50;;;9.00;99.90;;;;;;10535725;28;20220;-77
2024/01/05 02:56:07;;;;;;;0.50;0.50;;;8.90;99.90;;;;;;10536235;28;20245;-77
2024/01/05 03:01:15;;;;;;;0.50;0.50;;;8.90;99.90;;;;;;10512918;28;20709;-77
2024/01/05 03:06:18;;;;;;;0.50;0.50;;;8.90;99.90;;;;;;10521191;28;20228;-78
2024/01/05 03:11:22;;;;;;;0.50;0.50;;;8.80;99.90;;;;;;10514872;28;20600;-76
2024/01/05 03:16:24;;;;;;;0.60;0.60;;;8.80;99.90;;;;;;10503448;28;20219;-77
2024/01/05 03:21:27;;;;;;;0.60;0.60;;;8.80;99.90;;;;;;10514346;28;20216;-77
2024/01/05 03:26:30;;;;;;;0.50;0.50;;;8.80;99.90;;;;;;10531151;28;20227;-77
2024/01/05 03:31:33;;;;;;;0.50;0.50;;;8.90;99.90;;;;;;10532566;28;20246;-77
2024/01/05 03:36:35;;;;;;;0.50;0.50;;;8.90;99.90;;;;;;10486764;28;20197;-78
2024/01/05 03:41:39;;;;;;;0.50;0.50;;;8.90;99.90;;;;;;10504881;28;20281;-78
2024/01/05 03:46:41;;;;;;;0.50;0.50;;;9.00;99.90;;;;;;10534052;28;20215;-77
2024/01/05 03:51:44;;;;;;;0.80;0.80;;;9.10;99.90;;;;;;10533595;28;20273;-77
2024/01/05 03:56:48;;;;;;;0.57;0.57;;;9.20;99.90;;;;;;10534985;28;20192;-78
2024/01/05 04:01:50;;;;;;;0.60;0.60;;;9.30;99.90;;;;;;10535642;28;20277;-78
2024/01/05 04:06:52;;;;;;;0.87;0.87;;;9.30;99.90;;;;;;10513641;28;20209;-78
2024/01/05 04:11:56;;;;;;;0.90;0.90;;;9.30;99.90;;;;;;10507786;28;20647;-77
2024/01/05 04:16:58;;;;;;;0.90;0.90;;;9.30;99.90;;;;;;10527547;28;20199;-76
2024/01/05 04:22:01;;;;;;;0.80;0.80;;;9.30;99.50;;;;;;10503925;28;20213;-77
2024/01/05 04:27:05;;;;;;;0.70;0.70;;;9.40;99.20;;;;;;10498401;28;20566;-77
2024/01/05 04:32:07;;;;;;;0.70;0.70;;;9.40;99.00;;;;;;10492495;28;20239;-77
2024/01/05 04:37:10;;;;;;;3.43;3.23;;;9.40;98.60;;;;;;10512032;28;20265;-77
2024/01/05 04:42:14;;;;;;;0.80;0.80;;;9.50;98.80;;;;;;10522004;28;20246;-78
2024/01/05 04:47:17;;;;;;;0.80;0.80;;;9.50;98.70;;;;;;10491892;28;20228;-77
2024/01/05 04:52:19;;;;;;;0.40;0.40;;;9.60;99.10;;;;;;10492032;28;20212;-77
2024/01/05 04:57:23;;;;;;;0.83;0.83;;;9.60;98.50;;;;;;10472070;28;20204;-76
2024/01/05 05:02:25;;;;;;;0.73;0.73;;;9.60;98.60;;;;;;10465841;28;20281;-77
2024/01/05 05:07:27;;;;;;;0.90;0.90;;;9.60;98.90;;;;;;10488564;28;20767;-78
2024/01/05 05:12:31;;;;;;;0.60;0.60;;;9.60;99.00;;;;;;10490938;28;20604;-76
2024/01/05 05:17:33;;;;;;;0.70;0.70;;;9.60;98.80;;;;;;10472253;28;20229;-77
2024/01/05 05:22:36;;;;;;;0.73;0.73;;;9.60;98.90;;;;;;10467684;28;20224;-76
2024/01/05 05:27:39;;;;;;;0.60;0.60;;;9.50;98.90;;;;;;10472868;28;20666;-77
2024/01/05 05:32:42;;;;;;;0.77;0.77;;;9.50;98.70;;;;;;10466804;28;20281;-77
2024/01/05 05:37:44;;;;;;;0.70;0.70;;;9.50;98.70;;;;;;10490593;28;20200;-78
2024/01/05 05:42:48;;;;;;;0.43;0.43;;;9.40;98.60;;;;;;10491480;28;20642;-78
2024/01/05 05:47:51;;;;;;;0.60;0.60;;;9.40;98.70;;;;;;10473264;28;20213;-78
2024/01/05 05:52:53;;;;;;;0.80;0.80;;;9.40;98.90;;;;;;10460898;28;20632;-78
2024/01/05 05:57:58;;;;;;;0.50;0.50;;;9.40;99.10;;;;;;10475191;28;20197;-78
2024/01/05 06:03:00;;;;;;;0.70;0.70;;;9.40;99.50;;;;;;10450526;28;20281;-79
2024/01/05 06:08:03;;;;;;;0.40;0.40;;;9.40;99.60;;;;;;10501184;28;20216;-78
2024/01/05 06:13:07;;;;;;;0.67;0.67;;;9.50;99.60;;;;;;10499500;28;20224;-78
2024/01/05 06:18:09;;;;;;;0.80;0.80;;;9.50;99.70;;;;;;10483343;28;20223;-79
2024/01/05 06:23:11;;;;;;;0.30;0.30;;;9.50;99.40;;;;;;10471781;28;20223;-78
2024/01/05 06:28:15;;;;;;;0.70;0.70;;;9.50;99.20;;;;;;10496318;28;20209;-77
2024/01/05 06:33:17;;;;;;;0.50;0.50;;;9.50;98.90;;;;;;10490791;28;20231;-79
2024/01/05 06:38:20;;;;;;;0.70;0.70;;;9.40;98.40;;;;;;10499849;28;20253;-78
2024/01/05 06:43:23;;;;;;;0.50;0.50;;;9.40;98.70;;;;;;10495443;28;20239;-78
2024/01/05 06:48:26;;;;;;;0.50;0.50;;;9.40;98.80;;;;;;10496837;28;20204;-77
2024/01/05 06:53:28;;;;;;;0.60;0.60;;;9.40;98.90;;;;;;10496106;28;20205;-76
2024/01/05 06:58:34;;;;;;;0.60;0.60;;;9.30;98.70;;;;;;10484171;28;20197;-78
2024/01/05 07:03:36;;;;;;;0.60;0.60;;;9.30;98.60;;;;;;10467690;28;20216;-78
2024/01/05 07:08:39;;;;;;;0.63;0.63;;;9.20;98.40;;;;;;10496073;28;20278;-78
2024/01/05 07:13:43;;;;;;;0.50;0.50;;;9.20;98.60;;;;;;10478394;28;20228;-77
2024/01/05 07:18:46;;;;;;;0.57;0.57;;;9.20;99.00;;;;;;10483378;28;20736;-78
2024/01/05 07:23:48;;;;;;;0.60;0.60;;;9.20;99.10;;;;;;10466182;28;20220;-77
2024/01/05 07:28:52;;;;;;;0.70;0.70;;;9.30;99.00;;;;;;10485030;28;20335;-78
2024/01/05 07:33:55;;;;;;;0.50;0.50;;;9.30;99.00;;;;;;10464957;28;20224;-77
2024/01/05 07:38:59;;;;;;;0.50;0.50;;;9.30;98.90;;;;;;10497631;28;20197;-78
2024/01/05 07:44:02;;;;;;;0.40;0.40;;;9.30;99.00;;;;;;10482248;28;20208;-78
2024/01/05 07:49:05;;;;;;;0.47;0.47;;;9.20;99.10;;;;;;10503059;28;20652;-77
2024/01/05 07:54:07;;;;;;;0.23;0.23;;;9.30;99.50;;;;;;10533759;28;20261;-77
2024/01/05 07:59:11;;;;;;;0.50;0.50;;;9.30;99.40;;;;;;10493534;28;20628;-77
2024/01/05 08:04:14;;;;;;;0.60;0.60;;;9.30;99.80;;;;;;10535426;28;20199;-77
2024/01/05 08:09:17;;;;;;;0.50;0.50;;;9.40;99.80;;;;;;10485116;28;20207;-78
2024/01/05 08:14:21;;;;;;;0.50;0.50;;;9.50;99.90;;;;;;10531463;28;20205;-78
2024/01/05 08:19:23;;;;;;;0.50;0.50;;;9.50;99.90;;;;;;10531306;28;20209;-78
2024/01/05 08:24:27;;;;;;;0.50;0.50;;;9.60;99.90;;;;;;10530157;28;20681;-78
2024/01/05 08:29:31;;;;;;;0.40;0.40;;;9.60;99.90;;;;;;10492994;28;20746;-78
2024/01/05 08:34:33;;;;;;;0.40;0.40;;;9.70;99.90;;;;;;10527190;28;20199;-78
2024/01/05 08:39:39;;;;;;;0.40;0.40;;;9.70;99.90;;;;;;10496101;28;20224;-78
2024/01/05 08:44:43;;;;;;;0.40;0.40;;;9.70;99.90;;;;;;10533865;28;20208;-78
2024/01/05 08:49:45;;;;;;;0.40;0.40;;;9.80;99.90;;;;;;10533130;28;20224;-77
2024/01/05 08:54:48;;;;;;;0.40;0.40;;;9.80;99.90;;;;;;10531273;28;20188;-78
2024/01/05 08:59:52;;;;;;;0.43;0.43;;;9.80;99.90;;;;;;10531832;28;20598;-78
2024/01/05 09:04:54;;;;;;;0.50;0.50;;;9.80;99.90;;;;;;10501131;28;20689;-77
2024/01/05 09:09:56;;;;;;;0.30;0.30;;;9.80;99.90;;;;;;10497300;28;20223;-77
2024/01/05 09:15:00;;;;;;;0.30;0.30;;;9.80;99.90;;;;;;10499735;28;20196;-78
2024/01/05 09:20:04;;;;;;;0.20;0.20;;;9.70;99.90;;;;;;10525179;28;20269;-78
2024/01/05 09:25:07;;;;;;;0.40;0.40;;;9.70;99.90;;;;;;10527491;28;20223;-78
2024/01/05 09:30:11;;;;;;;0.30;0.30;;;9.60;99.90;;;;;;10475294;28;20267;-77
2024/01/05 09:35:14;;;;;;;0.40;0.40;;;9.60;99.90;;;;;;10490509;28;20257;-77
2024/01/05 09:40:17;;;;;;;0.40;0.40;;;9.50;99.90;;;;;;10500024;28;20212;-77
2024/01/05 09:45:24;;;;;;;0.40;0.40;;;9.50;99.90;;;;;;10498364;28;20293;-76
2024/01/05 09:50:26;;;;;;;0.40;0.40;;;9.60;99.90;;;;;;10491396;28;20615;-77
2024/01/05 09:55:28;;;;;;;0.30;0.30;;;9.70;99.90;;;;;;10515891;28;20605;-77
2024/01/05 10:00:33;;;;;;;0.40;0.40;;;9.80;99.90;;;;;;10483042;28;20261;-77
2024/01/05 10:05:35;;;;;;;0.30;0.30;;;9.90;99.90;;;;;;10524194;28;20222;-76
2024/01/05 10:10:48;;;;;;;0.40;0.40;;;10.00;99.30;;;;;;10523508;28;20224;-77
2024/01/05 10:15:56;;;;;;;0.30;0.30;;;10.10;99.50;;;;;;10474844;28;20186;-76
2024/01/05 10:21:09;;;;;;;0.40;0.40;;;10.20;99.60;;;;;;10476044;28;20243;-77
2024/01/05 10:26:16;;;;;;;0.43;0.43;;;10.30;99.80;;;;;;10474267;28;20232;-77
2024/01/05 10:31:20;;;;;;;0.40;0.40;;;10.40;99.60;;;;;;10496986;28;20228;-77
2024/01/05 10:36:23;;;;;;;0.40;0.40;;;10.50;99.50;;;;;;10475174;28;20204;-77
2024/01/05 10:41:26;;;;;;;0.40;0.40;;;10.60;99.40;;;;;;10486410;28;20480;-78
2024/01/05 10:46:31;;;;;;;0.30;0.30;;;10.70;99.40;;;;;;10488265;28;20224;-78
2024/01/05 10:51:35;;;;;;;0.40;0.40;;;10.80;99.40;;;;;;10485271;28;20224;-78
2024/01/05 10:56:42;;;;;;;0.40;0.40;;;10.90;99.40;;;;;;10518678;28;20613;-77
2024/01/05 11:01:47;;;;;;;0.40;0.40;;;10.90;99.90;;;;;;10496967;28;20208;-77
2024/01/05 11:06:51;;;;;;;0.30;0.30;;;11.00;99.90;;;;;;10502224;28;20220;-77
2024/01/05 11:12:03;;;;;;;0.40;0.40;;;11.10;99.90;;;;;;10503798;28;20227;-76
2024/01/05 11:17:31;;;;;;;0.33;0.33;;;11.20;99.70;;;;;;10529982;28;20197;-76
2024/01/05 11:22:36;;;;;;;0.30;0.30;;;11.30;99.90;;;;;;10493295;28;20224;-76
2024/01/05 11:27:38;;;;;;;0.30;0.30;;;11.30;99.60;;;;;;10530428;28;20216;-78
2024/01/05 11:32:44;;;;;;;0.50;0.50;;;11.30;99.90;;;;;;10531179;28;20235;-77
2024/01/05 11:37:48;;;;;;;0.50;0.50;;;11.40;99.90;;;;;;10486120;28;20292;-76
2024/01/05 11:42:50;;;;;;;0.50;0.50;;;11.40;99.90;;;;;;10532383;28;20212;-77
2024/01/05 11:47:54;;;;;;;0.40;0.40;;;11.50;99.90;;;;;;10506201;28;20219;-75
2024/01/05 11:53:13;;;;;;;0.40;0.40;;;11.50;99.90;;;;;;10533117;28;20497;-77
2024/01/05 11:58:21;;;;;;;0.50;0.50;;;11.50;99.90;;;;;;10533498;28;20188;-77
2024/01/05 12:03:25;;;;;;;0.40;0.40;;;11.50;99.90;;;;;;10533141;28;20257;-77
2024/01/05 12:08:28;;;;;;;0.33;0.33;;;11.40;99.90;;;;;;10511118;28;20700;-76
2024/01/05 12:13:33;;;;;;;0.50;0.50;;;11.50;99.90;;;;;;10525272;28;20685;-77
2024/01/05 12:18:44;;;;;;;0.50;0.50;;;11.50;99.90;;;;;;10496944;28;20654;-77
2024/01/05 12:23:54;;;;;;;0.40;0.40;;;11.50;99.90;;;;;;10528379;28;20215;-76
2024/01/05 12:28:56;;;;;;;0.50;0.50;;;11.50;99.90;;;;;;10528225;28;20345;-77
2024/01/05 12:34:02;;;;;;;0.40;0.40;;;11.50;99.90;;;;;;10528635;28;20220;-76
2024/01/05 12:39:10;;;;;;;0.33;0.33;;;11.50;99.90;;;;;;10501896;28;20252;-77
2024/01/05 12:44:15;;;;;;;0.40;0.40;;;11.40;99.90;;;;;;10503159;28;20219;-77
2024/01/05 12:49:23;;;;;;;0.43;0.43;;;11.50;99.90;;;;;;10531089;28;20762;-78
2024/01/05 12:54:25;;;;;;;0.30;0.30;;;11.50;99.90;;;;;;10532155;28;20741;-77
2024/01/05 12:59:28;;;;;;;0.20;0.20;;;11.40;99.90;;;;;;10533591;28;20196;-78
2024/01/05 13:04:34;;;;;;;0.40;0.40;;;11.50;99.90;;;;;;10503655;28;20203;-77
2024/01/05 13:09:36;;;;;;;0.40;0.40;;;11.60;99.90;;;;;;10502695;28;20705;-75
2024/01/05 13:14:39;;;;;;;0.40;0.40;;;11.60;99.90;;;;;;10524597;28;20242;-79
2024/01/05 13:19:42;;;;;;;0.43;0.43;;;11.60;99.90;;;;;;10476439;28;20717;-79
2024/01/05 13:24:45;;;;;;;0.40;0.40;;;11.60;99.90;;;;;;10501011;28;20204;-78
2024/01/05 13:29:49;;;;;;;0.37;0.37;;;11.60;99.90;;;;;;10478367;28;20250;-79
2024/01/05 13:34:53;;;;;;;0.30;0.30;;;11.60;99.90;;;;;;10490827;28;20604;-78
2024/01/05 13:39:55;;;;;;;0.30;0.30;;;11.60;99.90;;;;;;10499070;28;20216;-77
2024/01/05 13:44:58;;;;;;;0.30;0.30;;;11.60;99.90;;;;;;10493023;28;20223;-78
2024/01/05 13:50:02;;;;;;;0.40;0.40;;;11.60;99.90;;;;;;10477260;28;20224;-79
2024/01/05 13:55:05;;;;;;;0.40;0.40;;;11.50;99.90;;;;;;10493831;28;20710;-77
2024/01/05 14:00:09;;;;;;;0.40;0.40;;;11.50;99.90;;;;;;10494511;28;20235;-78
2024/01/05 14:05:12;;;;;;;0.40;0.40;;;11.60;99.90;;;;;;10492886;28;20200;-77
2024/01/05 14:10:16;;;;;;;0.40;0.40;;;11.50;99.90;;;;;;10493916;28;20221;-77
2024/01/05 14:15:18;;;;;;;0.40;0.40;;;11.50;99.90;;;;;;10484363;28;20196;-78
2024/01/05 14:20:22;;;;;;;0.40;0.40;;;11.40;99.90;;;;;;10489029;28;20258;-76
2024/01/05 14:25:24;;;;;;;0.30;0.30;;;11.40;99.90;;;;;;10488007;28;20196;-77
2024/01/05 14:30:26;;;;;;;0.50;0.50;;;11.40;99.90;;;;;;10530716;28;20228;-78
2024/01/05 14:35:30;;;;;;;0.60;0.60;;;11.40;99.90;;;;;;10524283;28;20208;-78
2024/01/05 14:40:33;;;;;;;0.60;0.60;;;11.30;99.90;;;;;;10509727;28;20276;-79
2024/01/05 14:45:35;;;;;;;0.63;0.63;;;11.40;99.90;;;;;;10540519;28;20207;-76
2024/01/05 14:50:39;;;;;;;0.67;0.67;;;11.30;99.90;;;;;;10540341;28;20276;-78
2024/01/05 14:55:44;;;;;;;0.60;0.60;;;11.30;99.90;;;;;;10545998;28;20184;-78
2024/01/05 15:00:46;;;;;;;0.53;0.53;;;11.20;99.90;;;;;;10532215;28;20208;-79
2024/01/05 15:05:50;;;;;;;0.50;0.50;;;11.20;99.90;;;;;;10536832;28;20469;-78
2024/01/05 15:10:52;;;;;;;0.50;0.50;;;11.10;99.90;;;;;;10549896;28;20895;-79
2024/01/05 15:15:55;;;;;;;0.50;0.50;;;11.10;99.90;;;;;;10517129;28;20197;-79
2024/01/05 15:20:58;;;;;;;0.60;0.60;;;11.10;99.90;;;;;;10512677;28;20310;-79
2024/01/05 15:26:01;;;;;;;0.70;0.70;;;11.00;99.90;;;;;;10495358;28;20278;-78
2024/01/05 15:31:04;;;;;;;0.50;0.50;;;11.00;99.90;;;;;;10494307;28;20216;-78
2024/01/05 15:36:08;;;;;;;0.60;0.60;;;10.90;99.90;;;;;;10528754;28;20891;-79
2024/01/05 15:41:10;;;;;;;0.60;0.60;;;10.90;99.90;;;;;;10542128;28;20224;-79
2024/01/05 15:46:15;;;;;;;0.60;0.60;;;10.80;99.90;;;;;;10490787;28;20201;-80
2024/01/05 15:51:23;;;;;;;0.60;0.60;;;10.80;99.90;;;;;;10508821;28;20719;-79
2024/01/05 15:56:25;;;;;;;0.60;0.60;;;10.70;99.90;;;;;;10504192;28;20194;-79
2024/01/05 16:01:28;;;;;;;0.50;0.50;;;10.70;99.90;;;;;;10496173;28;20639;-78
2024/01/05 16:06:31;;;;;;;0.80;0.80;;;10.60;99.90;;;;;;10496722;28;20196;-78
2024/01/05 16:11:34;;;;;;;0.70;0.70;;;10.50;99.90;;;;;;10490473;28;20203;-78
2024/01/05 16:16:39;;;;;;;0.60;0.60;;;10.50;99.90;;;;;;10510003;28;20226;-78
2024/01/05 16:21:43;;;;;;;0.40;0.40;;;10.40;99.90;;;;;;10502612;28;20221;-77
2024/01/05 16:26:46;;;;;;;0.60;0.60;;;10.30;99.90;;;;;;10501793;28;20662;-78
2024/01/05 16:31:48;;;;;;;0.60;0.60;;;10.20;99.90;;;;;;10493909;28;20224;-77
2024/01/05 16:36:52;;;;;;;0.60;0.60;;;10.20;99.90;;;;;;10502037;28;20227;-78
2024/01/05 16:41:54;;;;;;;0.50;0.50;;;10.10;99.90;;;;;;10481239;28;20257;-78
2024/01/05 16:46:56;;;;;;;0.70;0.70;;;10.00;99.90;;;;;;10504122;28;20717;-77
2024/01/05 16:52:00;;;;;;;0.60;0.60;;;9.90;99.90;;;;;;10494212;28;20224;-78
2024/01/05 16:57:03;;;;;;;0.70;0.70;;;9.80;99.90;;;;;;10505918;28;20219;-79
2024/01/05 17:02:05;;;;;;;0.63;0.63;;;9.70;99.90;;;;;;10517378;28;20239;-78
2024/01/05 17:07:09;;;;;;;0.70;0.70;;;9.70;99.90;;;;;;10506292;28;20204;-77
2024/01/05 17:12:11;;;;;;;0.60;0.60;;;9.60;99.90;;;;;;10465360;28;20224;-78
2024/01/05 17:17:14;;;;;;;0.30;0.30;;;9.50;99.90;;;;;;10505898;28;20567;-77
2024/01/05 17:22:18;;;;;;;0.60;0.60;;;9.40;99.90;;;;;;10515068;28;20223;-77
2024/01/05 17:27:20;;;;;;;0.30;0.30;;;9.40;99.90;;;;;;10497552;28;20266;-76
2024/01/05 17:32:23;;;;;;;0.60;0.60;;;9.30;99.90;;;;;;10493716;28;20242;-76
2024/01/05 17:37:27;;;;;;;0.60;0.60;;;9.10;99.90;;;;;;10496800;28;20223;-76
2024/01/05 17:42:29;;;;;;;0.60;0.60;;;9.10;99.90;;;;;;10481576;28;20277;-76
2024/01/05 17:47:32;;;;;;;0.50;0.50;;;9.20;99.90;;;;;;10479567;28;20282;-76
2024/01/05 17:52:36;;;;;;;0.60;0.60;;;9.20;99.90;;;;;;10498101;28;20212;-75
2024/01/05 17:57:39;;;;;;;0.60;0.60;;;9.20;99.90;;;;;;10488852;28;20661;-76
2024/01/05 18:02:41;;;;;;;0.53;0.53;;;9.20;99.90;;;;;;10498052;28;20684;-75
2024/01/05 18:07:45;;;;;;;0.83;0.83;;;9.20;99.90;;;;;;10484125;28;20650;-76
2024/01/05 18:12:47;;;;;;;0.60;0.60;;;9.20;99.90;;;;;;10498987;28;20212;-76
2024/01/05 18:17:49;;;;;;;0.63;0.63;;;9.20;99.90;;;;;;10479130;28;20286;-76
2024/01/05 18:22:53;;;;;;;0.80;0.80;;;9.20;99.90;;;;;;10493725;28;20215;-77
2024/01/05 18:27:57;;;;;;;0.70;0.70;;;9.20;99.90;;;;;;10476740;28;20227;-77
2024/01/05 18:32:59;;;;;;;0.87;0.87;;;9.10;99.90;;;;;;10494208;28;20232;-78
2024/01/05 18:38:04;;;;;;;0.90;0.90;;;9.10;99.90;;;;;;10487204;28;20243;-78
2024/01/05 18:43:07;;;;;;;0.70;0.70;;;9.20;99.90;;;;;;10493501;28;20212;-76
2024/01/05 18:48:11;;;;;;;0.70;0.70;;;9.20;99.90;;;;;;10493253;28;20270;-77
2024/01/05 18:53:14;;;;;;;0.80;0.80;;;9.10;99.90;;;;;;10496994;28;20705;-78
2024/01/05 18:58:17;;;;;;;0.70;0.70;;;9.10;99.90;;;;;;10494033;28;20201;-76
2024/01/05 19:03:19;;;;;;;0.80;0.80;;;9.10;99.90;;;;;;10491823;28;20277;-76
2024/01/05 19:08:23;;;;;;;0.80;0.80;;;9.10;99.90;;;;;;10492873;28;20221;-77
2024/01/05 19:13:25;;;;;;;0.63;0.63;;;9.00;99.90;;;;;;10499216;28;20224;-77
2024/01/05 19:18:29;;;;;;;0.53;0.53;;;9.10;99.90;;;;;;10502659;28;20629;-77
2024/01/05 19:23:33;;;;;;;0.30;0.30;;;9.00;99.90;;;;;;10516612;28;20236;-77
2024/01/05 19:28:35;;;;;;;0.63;0.63;;;8.90;99.90;;;;;;10494254;28;20637;-76
2024/01/05 19:33:38;;;;;;;0.60;0.60;;;8.90;99.90;;;;;;10505796;28;20236;-77
2024/01/05 19:38:42;;;;;;;0.73;0.73;;;8.80;99.90;;;;;;10486187;28;20196;-77
2024/01/05 19:43:44;;;;;;;0.60;0.60;;;8.80;99.90;;;;;;10505169;28;20216;-77
2024/01/05 19:48:46;;;;;;;0.80;0.80;;;8.70;99.90;;;;;;10506937;28;20224;-78
2024/01/05 19:53:50;;;;;;;0.60;0.60;;;8.70;99.90;;;;;;10508877;28;20216;-77
2024/01/05 19:58:52;;;;;;;0.80;0.80;;;8.80;99.90;;;;;;10507717;28;20766;-78
2024/01/05 20:03:55;;;;;;;0.70;0.70;;;8.80;99.90;;;;;;10500855;28;20368;-77
2024/01/05 20:08:58;;;;;;;0.70;0.70;;;8.80;99.90;;;;;;10484701;28;20220;-78
2024/01/05 20:14:01;;;;;;;0.80;0.80;;;8.80;99.90;;;;;;10502278;28;20216;-77
2024/01/05 20:19:05;;;;;;;0.60;0.60;;;8.80;99.90;;;;;;10510249;28;20188;-77
2024/01/05 20:24:09;;;;;;;0.70;0.70;;;8.90;99.90;;;;;;10490695;28;21034;-78
2024/01/05 20:29:13;;;;;;;0.70;0.70;;;8.90;99.90;;;;;;10486979;28;20215;-78
2024/01/05 20:34:15;;;;;;;0.60;0.60;;;8.90;99.90;;;;;;10492131;28;20217;-77
2024/01/05 20:39:20;;;;;;;0.70;0.70;;;8.90;99.90;;;;;;10492697;28;20195;-78
2024/01/05 20:44:24;;;;;;;0.63;0.63;;;8.90;99.90;;;;;;10492211;28;20205;-77
2024/01/05 20:49:26;;;;;;;0.77;0.77;;;8.90;99.90;;;;;;10501156;28;20224;-76
2024/01/05 20:54:30;;;;;;;0.80;0.80;;;8.80;99.90;;;;;;10490983;28;20203;-77
2024/01/05 20:59:32;;;;;;;0.60;0.60;;;8.80;99.90;;;;;;10504317;28;20262;-77
2024/01/05 21:04:35;;;;;;;0.60;0.60;;;8.80;99.90;;;;;;10477720;28;20211;-77
2024/01/05 21:09:40;;;;;;;0.70;0.70;;;8.80;99.90;;;;;;10502836;28;20217;-77
2024/01/05 21:14:42;;;;;;;0.70;0.70;;;8.80;99.90;;;;;;10499220;28;20196;-76
2024/01/05 21:19:45;;;;;;;0.70;0.70;;;8.80;99.90;;;;;;10502344;28;20659;-75
2024/01/05 21:24:50;;;;;;;0.70;0.70;;;8.90;99.90;;;;;;10490338;28;20767;-75
2024/01/05 21:29:52;;;;;;;0.50;0.50;;;8.90;99.90;;;;;;10479590;28;20562;-76
2024/01/05 21:34:56;;;;;;;0.50;0.50;;;8.90;99.90;;;;;;10491087;28;20724;-76
2024/01/05 21:40:00;;;;;;;0.60;0.60;;;8.90;99.90;;;;;;10479809;28;20208;-76
2024/01/05 21:45:02;;;;;;;0.77;0.77;;;9.00;99.90;;;;;;10492488;28;20705;-77
2024/01/05 21:50:06;;;;;;;0.70;0.70;;;9.00;99.90;;;;;;10486896;28;20293;-77
2024/01/05 21:55:10;;;;;;;0.60;0.60;;;9.00;99.90;;;;;;10487332;28;20216;-76
2024/01/05 22:00:13;;;;;;;0.60;0.60;;;9.00;99.90;;;;;;10485523;28;20220;-76
2024/01/05 22:05:15;;;;;;;0.50;0.50;;;8.90;99.90;;;;;;10503629;28;20216;-76
2024/01/05 22:10:19;;;;;;;0.90;0.90;;;8.90;99.90;;;;;;10494527;28;20599;-76
2024/01/05 22:15:21;;;;;;;0.50;0.50;;;8.80;99.90;;;;;;10509972;28;20831;-76
2024/01/05 22:20:24;;;;;;;0.50;0.50;;;8.80;99.90;;;;;;10493775;28;20289;-76
2024/01/05 22:25:28;;;;;;;0.53;0.53;;;8.80;99.90;;;;;;10508914;28;20197;-77
2024/01/05 22:30:30;;;;;;;0.50;0.50;;;8.80;99.90;;;;;;10493290;28;20759;-77
2024/01/05 22:35:33;;;;;;;0.70;0.70;;;8.80;99.90;;;;;;10488020;28;20250;-77
2024/01/05 22:40:36;;;;;;;0.50;0.50;;;8.80;99.90;;;;;;10469917;28;20274;-77
2024/01/05 22:45:39;;;;;;;0.70;0.70;;;8.80;99.90;;;;;;10495554;28;20197;-77
2024/01/05 22:50:41;;;;;;;0.60;0.60;;;8.80;99.90;;;;;;10489296;28;20708;-77
2024/01/05 22:55:45;;;;;;;0.70;0.70;;;8.80;99.90;;;;;;10501227;28;20212;-76
2024/01/05 23:00:48;;;;;;;0.77;0.77;;;8.70;99.90;;;;;;10489064;28;20270;-77
2024/01/05 23:05:50;;;;;;;0.80;0.80;;;8.60;99.90;;;;;;10476510;28;20751;-76
2024/01/05 23:10:54;;;;;;;0.70;0.70;;;8.60;99.90;;;;;;10490109;28;20236;-77
2024/01/05 23:15:57;;;;;;;0.70;0.70;;;8.60;99.90;;;;;;10489807;28;20270;-77
2024/01/05 23:20:59;;;;;;;0.60;0.60;;;8.60;99.90;;;;;;10491640;28;20698;-76
2024/01/05 23:26:03;;;;;;;0.70;0.70;;;8.60;99.90;;;;;;10477594;28;20220;-77
2024/01/05 23:31:06;;;;;;;0.73;0.73;;;8.50;99.90;;;;;;10489453;28;20269;-76
2024/01/05 23:36:09;;;;;;;0.70;0.70;;;8.50;99.90;;;;;;10487773;28;20739;-77
2024/01/05 23:41:14;;;;;;;0.50;0.50;;;8.60;99.90;;;;;;10490240;28;20220;-78
2024/01/05 23:46:16;;;;;;;0.60;0.60;;;8.70;99.90;;;;;;10488715;28;20532;-77
2024/01/05 23:51:19;;;;;;;0.73;0.73;;;8.80;99.90;;;;;;10490599;28;20220;-76
2024/01/05 23:56:22;;;;;;;0.50;0.50;;;8.90;99.90;;;;;;10496011;28;20574;-76
